Time;durP1;ratioP1;P1;durP2;ratioP2;P2;SDS_P1;SDS_P2;PMS_P1;PMS_P2;Temp;Humidity;BMP_temperature;BMP_pressure;BME280_temperature;BME280_humidity;BME280_pressure;Samples;Min_cycle;Max_cycle;Signal;HPM_P1;HPM_P2
2022/04/26 03:37:55;;;;;;;10.80;8.65;;;;;;;;;;4996648;28;20528;-80
2022/04/26 03:40:21;;;;;;;10.75;8.50;;;;;;;;;;4990127;28;20198;-80
2022/04/26 03:42:47;;;;;;;9.10;7.13;;;;;;;;;;5002767;28;20243;-80
2022/04/26 03:45:13;;;;;;;10.03;7.67;;;;;;;;;;4986040;28;20190;-79
2022/04/26 03:47:39;;;;;;;14.95;8.35;;;;;;;;;;5005264;28;20779;-79
2022/04/26 03:50:05;;;;;;;9.82;8.45;;;;;;;;;;5002823;28;20206;-79
2022/04/26 03:52:31;;;;;;;9.20;8.20;;;;;;;;;;4983786;28;20187;-80
2022/04/26 03:54:57;;;;;;;18.00;9.18;;;;;;;;;;4993792;28;20195;-80
2022/04/26 03:57:23;;;;;;;11.80;8.40;;;;;;;;;;4988664;28;20186;-80
2022/04/26 03:59:49;;;;;;;13.38;8.57;;;;;;;;;;5004175;28;20504;-80
2022/04/26 04:02:15;;;;;;;12.50;8.13;;;;;;;;;;5002861;28;20234;-80
2022/04/26 04:04:41;;;;;;;11.85;8.45;;;;;;;;;;5001343;28;20787;-80
2022/04/26 04:07:07;;;;;;;11.88;8.48;;;;;;;;;;5001796;28;20263;-80
2022/04/26 04:09:33;;;;;;;11.40;8.20;;;;;;;;;;5001758;28;20191;-80
2022/04/26 04:11:59;;;;;;;13.57;9.15;;;;;;;;;;4984862;28;20203;-80
2022/04/26 04:14:25;;;;;;;10.30;8.10;;;;;;;;;;4972706;28;20575;-79
2022/04/26 04:16:51;;;;;;;12.70;9.45;;;;;;;;;;4998967;28;20605;-80
2022/04/26 04:19:21;;;;;;;12.03;8.57;;;;;;;;;;4989636;28;20186;-79
2022/04/26 04:21:47;;;;;;;16.05;9.50;;;;;;;;;;5001572;28;20431;-79
2022/04/26 04:24:14;;;;;;;12.88;9.93;;;;;;;;;;5001818;28;20183;-79
2022/04/26 04:26:40;;;;;;;13.05;9.32;;;;;;;;;;4987979;28;20206;-79
2022/04/26 04:29:07;;;;;;;13.23;8.75;;;;;;;;;;4987218;28;20172;-80
2022/04/26 04:31:33;;;;;;;11.85;8.57;;;;;;;;;;5002582;28;20177;-80
2022/04/26 04:34:01;;;;;;;10.93;8.90;;;;;;;;;;5000099;28;20207;-80
2022/04/26 04:36:27;;;;;;;9.63;8.63;;;;;;;;;;5001046;28;20427;-80
2022/04/26 04:38:53;;;;;;;11.50;8.13;;;;;;;;;;5004228;28;20332;-80
2022/04/26 04:41:19;;;;;;;11.30;7.35;;;;;;;;;;4998526;28;20487;-79
2022/04/26 04:43:45;;;;;;;11.88;8.20;;;;;;;;;;4977852;28;20418;-80
2022/04/26 04:46:11;;;;;;;9.55;8.02;;;;;;;;;;5001127;28;20187;-80
2022/04/26 04:48:37;;;;;;;16.17;9.07;;;;;;;;;;4988879;28;20275;-80
2022/04/26 04:51:04;;;;;;;14.40;8.90;;;;;;;;;;5001808;28;20187;-79
2022/04/26 04:53:30;;;;;;;14.35;8.07;;;;;;;;;;5003873;28;20181;-79
2022/04/26 04:55:56;;;;;;;14.73;9.23;;;;;;;;;;5001530;28;20218;-79
2022/04/26 04:58:22;;;;;;;13.63;8.85;;;;;;;;;;4986740;28;20270;-80
2022/04/26 05:00:48;;;;;;;11.82;8.50;;;;;;;;;;4999716;28;20699;-79
2022/04/26 05:03:14;;;;;;;13.20;8.65;;;;;;;;;;5000435;28;25458;-79
2022/04/26 05:05:40;;;;;;;11.98;9.30;;;;;;;;;;5003340;28;20202;-79
2022/04/26 05:08:10;;;;;;;15.80;9.20;;;;;;;;;;5001854;28;20186;-79
2022/04/26 05:10:36;;;;;;;10.45;8.30;;;;;;;;;;4988715;28;20187;-79
2022/04/26 05:13:02;;;;;;;12.05;8.50;;;;;;;;;;5001395;28;20222;-79
2022/04/26 05:15:28;;;;;;;13.48;8.98;;;;;;;;;;5000211;28;20180;-79
2022/04/26 05:17:55;;;;;;;12.65;11.15;;;;;;;;;;4984921;28;20191;-79
2022/04/26 05:20:21;;;;;;;15.98;10.48;;;;;;;;;;4972202;28;20298;-79
2022/04/26 05:25:35;;;;;;;13.75;10.60;;;;;;;;;;5001460;28;20194;-79
2022/04/26 05:28:04;;;;;;;14.23;11.18;;;;;;;;;;4986796;28;20187;-79
2022/04/26 05:30:30;;;;;;;13.05;9.68;;;;;;;;;;4987081;28;20210;-79
2022/04/26 05:32:56;;;;;;;17.02;11.68;;;;;;;;;;5002226;28;20189;-79
2022/04/26 05:35:22;;;;;;;13.60;9.40;;;;;;;;;;4976046;28;20190;-79
2022/04/26 05:37:48;;;;;;;16.25;10.68;;;;;;;;;;4999129;28;20202;-79
2022/04/26 05:40:15;;;;;;;14.20;10.15;;;;;;;;;;5000477;28;20218;-79
2022/04/26 05:42:41;;;;;;;14.10;9.75;;;;;;;;;;4986264;28;20183;-79
2022/04/26 05:45:07;;;;;;;17.08;10.45;;;;;;;;;;5000073;28;20184;-79
2022/04/26 05:47:34;;;;;;;15.35;10.70;;;;;;;;;;5003191;28;20629;-79
2022/04/26 05:50:00;;;;;;;13.50;10.43;;;;;;;;;;4981333;28;20711;-79
2022/04/26 05:52:26;;;;;;;14.18;9.90;;;;;;;;;;5001361;28;20191;-79
2022/04/26 05:54:52;;;;;;;19.65;10.98;;;;;;;;;;4999861;28;20191;-79
2022/04/26 05:57:18;;;;;;;18.42;10.77;;;;;;;;;;4982975;28;20254;-80
2022/04/26 05:59:44;;;;;;;19.42;14.00;;;;;;;;;;5002423;28;20206;-79
2022/04/26 06:02:10;;;;;;;15.73;12.40;;;;;;;;;;4983544;28;20538;-79
2022/04/26 06:04:38;;;;;;;22.13;14.10;;;;;;;;;;4986642;28;20668;-79
2022/04/26 06:07:04;;;;;;;22.05;14.10;;;;;;;;;;4985947;28;20179;-79
2022/04/26 06:09:30;;;;;;;20.15;14.52;;;;;;;;;;5001782;28;20201;-79
2022/04/26 06:11:57;;;;;;;22.98;15.18;;;;;;;;;;4998454;28;20194;-79
2022/04/26 06:14:23;;;;;;;19.58;13.93;;;;;;;;;;5003079;28;20183;-80
2022/04/26 06:16:49;;;;;;;22.60;14.40;;;;;;;;;;4985506;28;20307;-80
2022/04/26 06:19:16;;;;;;;22.60;14.23;;;;;;;;;;5005181;28;20179;-79
2022/04/26 06:21:42;;;;;;;21.23;14.55;;;;;;;;;;5004564;28;20834;-79
2022/04/26 06:24:08;;;;;;;23.70;15.80;;;;;;;;;;4987469;28;20727;-80
2022/04/26 06:26:34;;;;;;;24.30;15.60;;;;;;;;;;5007592;28;20190;-81
2022/04/26 06:29:00;;;;;;;24.10;17.30;;;;;;;;;;5002943;28;20706;-81
2022/04/26 06:31:26;;;;;;;25.33;16.75;;;;;;;;;;4985739;28;20438;-81
2022/04/26 06:33:52;;;;;;;29.67;18.75;;;;;;;;;;5002405;28;20198;-79
2022/04/26 06:36:18;;;;;;;33.90;19.03;;;;;;;;;;4987920;28;20182;-79
2022/04/26 06:38:44;;;;;;;30.08;19.60;;;;;;;;;;4988439;28;20987;-80
2022/04/26 06:41:10;;;;;;;28.15;18.30;;;;;;;;;;4981616;28;20203;-80
2022/04/26 06:43:36;;;;;;;28.58;19.27;;;;;;;;;;4985946;28;20183;-81
2022/04/26 06:46:02;;;;;;;33.27;21.07;;;;;;;;;;4996651;28;20202;-79
2022/04/26 06:48:28;;;;;;;35.13;22.45;;;;;;;;;;4985183;28;20614;-80
2022/04/26 06:50:55;;;;;;;40.53;23.75;;;;;;;;;;4986080;28;20187;-83
2022/04/26 06:53:21;;;;;;;35.13;22.15;;;;;;;;;;4989796;28;20224;-82
2022/04/26 06:55:47;;;;;;;33.97;21.70;;;;;;;;;;4988575;28;20183;-81
2022/04/26 06:58:13;;;;;;;28.90;20.13;;;;;;;;;;4984742;28;20194;-84
2022/04/26 07:00:39;;;;;;;32.65;21.52;;;;;;;;;;4992714;28;20507;-84
2022/04/26 07:03:05;;;;;;;33.35;21.65;;;;;;;;;;5004639;28;20184;-83
2022/04/26 07:05:31;;;;;;;29.55;19.90;;;;;;;;;;4991661;28;20188;-84
2022/04/26 07:07:57;;;;;;;36.13;23.95;;;;;;;;;;4997064;28;20641;-83
2022/04/26 07:10:24;;;;;;;41.55;25.30;;;;;;;;;;5003460;28;20211;-83
2022/04/26 07:12:50;;;;;;;42.72;25.20;;;;;;;;;;4985014;28;20183;-83
2022/04/26 07:15:16;;;;;;;39.85;26.20;;;;;;;;;;5003241;28;20199;-82
2022/04/26 07:17:43;;;;;;;37.55;23.02;;;;;;;;;;5005523;28;20218;-82
2022/04/26 07:20:09;;;;;;;34.65;23.30;;;;;;;;;;5001440;28;20221;-83
2022/04/26 07:22:36;;;;;;;42.72;24.85;;;;;;;;;;4998578;28;20595;-82
2022/04/26 07:25:02;;;;;;;39.00;26.05;;;;;;;;;;4986297;28;20194;-83
2022/04/26 07:27:28;;;;;;;39.42;24.60;;;;;;;;;;4985862;28;20897;-83
2022/04/26 07:29:54;;;;;;;43.57;25.03;;;;;;;;;;4997762;28;20194;-83
2022/04/26 07:34:20;;;;;;;45.97;26.48;;;;;;;;;;5002285;28;20429;-83
2022/04/26 07:35:09;;;;;;;39.03;25.75;;;;;;;;;;4994092;28;20652;-82
2022/04/26 07:37:35;;;;;;;41.55;26.67;;;;;;;;;;4986727;28;20606;-84
2022/04/26 07:40:01;;;;;;;44.47;26.30;;;;;;;;;;4987381;28;20207;-83
2022/04/26 07:42:27;;;;;;;39.90;25.47;;;;;;;;;;5002113;28;20214;-84
2022/04/26 07:44:53;;;;;;;41.87;25.07;;;;;;;;;;5003485;28;20476;-85
2022/04/26 07:47:22;;;;;;;45.50;26.85;;;;;;;;;;4988466;28;20426;-83
2022/04/26 07:49:48;;;;;;;44.47;29.52;;;;;;;;;;5002020;28;20179;-86
2022/04/26 07:52:15;;;;;;;45.47;28.45;;;;;;;;;;4985168;28;20206;-87
2022/04/26 07:54:42;;;;;;;37.55;26.05;;;;;;;;;;5002112;28;20179;-84
2022/04/26 07:57:08;;;;;;;40.05;26.05;;;;;;;;;;4999324;28;20747;-84
2022/04/26 07:59:34;;;;;;;42.50;26.23;;;;;;;;;;5005301;28;20676;-84
2022/04/26 08:02:00;;;;;;;46.50;25.92;;;;;;;;;;4997908;28;20246;-83
2022/04/26 08:04:26;;;;;;;37.05;24.25;;;;;;;;;;5001557;28;20213;-84
2022/04/26 08:06:52;;;;;;;40.83;26.08;;;;;;;;;;4981558;28;20175;-83
2022/04/26 08:09:18;;;;;;;38.90;25.73;;;;;;;;;;4986266;28;20604;-84
2022/04/26 08:11:46;;;;;;;39.00;25.37;;;;;;;;;;5003678;28;20175;-83
2022/04/26 08:14:12;;;;;;;35.85;24.15;;;;;;;;;;4986075;28;20486;-83
2022/04/26 08:16:38;;;;;;;39.80;24.57;;;;;;;;;;4985965;28;20234;-83
2022/04/26 08:19:04;;;;;;;35.50;24.70;;;;;;;;;;5003217;28;20437;-84
2022/04/26 08:21:30;;;;;;;35.90;24.38;;;;;;;;;;5000622;28;20477;-83
2022/04/26 08:29:25;;;;;;;32.70;23.50;;;;;;;;;;5002259;28;20190;-83
2022/04/26 08:31:52;;;;;;;34.00;22.88;;;;;;;;;;4996916;28;20187;-83
2022/04/26 08:34:18;;;;;;;32.08;22.63;;;;;;;;;;5000384;28;20298;-83
2022/04/26 08:36:46;;;;;;;33.63;23.37;;;;;;;;;;4996285;28;20179;-85
2022/04/26 08:39:12;;;;;;;31.40;21.30;;;;;;;;;;4986269;28;20461;-85
2022/04/26 08:41:38;;;;;;;33.75;22.17;;;;;;;;;;5017880;28;20177;-83
2022/04/26 08:44:09;;;;;;;32.97;21.63;;;;;;;;;;4983983;28;20206;-85
2022/04/26 08:52:06;;;;;;;33.50;23.25;;;;;;;;;;5001173;28;20198;-85
2022/04/26 08:54:32;;;;;;;32.63;23.70;;;;;;;;;;4985366;28;20211;-83
2022/04/26 08:56:58;;;;;;;31.38;22.08;;;;;;;;;;5002171;28;20175;-83
2022/04/26 08:59:24;;;;;;;33.33;23.25;;;;;;;;;;4972266;28;20180;-88
2022/04/26 09:01:52;;;;;;;32.78;22.30;;;;;;;;;;4998005;28;20238;-85
2022/04/26 09:04:18;;;;;;;33.80;22.63;;;;;;;;;;5000568;28;20174;-84
2022/04/26 09:06:44;;;;;;;33.33;22.83;;;;;;;;;;5000935;28;20202;-86
2022/04/26 09:09:10;;;;;;;38.47;23.20;;;;;;;;;;5001624;28;20198;-85
2022/04/26 09:11:36;;;;;;;33.80;22.67;;;;;;;;;;4982286;28;20175;-83
2022/04/26 09:14:03;;;;;;;35.83;22.95;;;;;;;;;;4998525;28;20183;-86
2022/04/26 09:16:29;;;;;;;32.83;23.75;;;;;;;;;;4982297;28;20345;-83
2022/04/26 09:19:06;;;;;;;32.85;23.38;;;;;;;;;;5001872;28;20187;-83
2022/04/26 09:21:32;;;;;;;33.35;22.50;;;;;;;;;;4987884;28;20223;-84
2022/04/26 09:24:07;;;;;;;36.58;24.83;;;;;;;;;;4981459;28;20621;-88
2022/04/26 09:26:35;;;;;;;31.55;22.30;;;;;;;;;;5002488;28;20449;-83
2022/04/26 09:29:01;;;;;;;32.95;23.73;;;;;;;;;;4981742;28;20250;-84
2022/04/26 09:31:28;;;;;;;31.70;22.00;;;;;;;;;;5000130;28;20600;-83
2022/04/26 09:34:04;;;;;;;38.00;22.83;;;;;;;;;;4982237;28;20210;-87
2022/04/26 09:36:31;;;;;;;34.13;22.90;;;;;;;;;;4983107;28;20198;-83
2022/04/26 09:39:00;;;;;;;33.30;22.90;;;;;;;;;;4983562;28;20181;-86
2022/04/26 09:41:27;;;;;;;34.13;23.83;;;;;;;;;;5003173;28;20202;-85
2022/04/26 09:43:58;;;;;;;36.25;24.20;;;;;;;;;;4983175;28;20212;-85
2022/04/26 09:46:24;;;;;;;34.35;23.90;;;;;;;;;;4984264;28;20478;-84
2022/04/26 09:48:53;;;;;;;31.63;22.55;;;;;;;;;;4984330;28;20192;-85
2022/04/26 09:51:19;;;;;;;35.22;24.33;;;;;;;;;;4982234;28;20195;-85
2022/04/26 09:53:45;;;;;;;35.50;24.55;;;;;;;;;;4969442;28;20196;-84
2022/04/26 09:56:13;;;;;;;29.08;22.27;;;;;;;;;;5000036;28;20189;-83
2022/04/26 09:58:39;;;;;;;31.40;23.30;;;;;;;;;;4999633;28;20281;-84
2022/04/26 10:01:05;;;;;;;31.70;23.50;;;;;;;;;;4981078;28;20695;-83
2022/04/26 10:03:32;;;;;;;32.03;21.87;;;;;;;;;;4983104;28;20198;-83
2022/04/26 10:06:02;;;;;;;33.90;24.10;;;;;;;;;;4993315;28;20461;-85
2022/04/26 10:08:30;;;;;;;34.45;23.70;;;;;;;;;;4989595;28;20218;-84
2022/04/26 10:10:56;;;;;;;36.72;25.42;;;;;;;;;;4980977;28;20202;-84
2022/04/26 10:13:32;;;;;;;35.08;23.85;;;;;;;;;;4985182;28;20183;-85
2022/04/26 10:16:03;;;;;;;33.42;23.27;;;;;;;;;;4998442;28;20233;-83
2022/04/26 10:18:31;;;;;;;39.28;25.55;;;;;;;;;;4979114;28;20187;-84
2022/04/26 10:20:57;;;;;;;34.10;22.55;;;;;;;;;;4983726;28;20203;-84
2022/04/26 10:23:23;;;;;;;34.70;23.45;;;;;;;;;;4989308;28;20239;-83
2022/04/26 10:26:09;;;;;;;39.03;24.70;;;;;;;;;;5007594;28;20194;-81
2022/04/26 10:28:48;;;;;;;38.83;23.75;;;;;;;;;;5002373;28;20465;-83
2022/04/26 10:31:14;;;;;;;31.77;23.52;;;;;;;;;;4997589;28;20194;-82
2022/04/26 10:33:42;;;;;;;30.60;21.30;;;;;;;;;;4994518;28;20183;-84
2022/04/26 10:36:37;;;;;;;33.83;22.60;;;;;;;;;;4986974;28;20445;-81
2022/04/26 10:39:06;;;;;;;34.85;25.42;;;;;;;;;;4953118;28;20248;-84
2022/04/26 10:41:35;;;;;;;33.28;23.67;;;;;;;;;;4989943;28;20234;-82
2022/04/26 10:44:15;;;;;;;34.03;24.40;;;;;;;;;;4994869;28;20216;-79
2022/04/26 10:46:41;;;;;;;32.38;22.25;;;;;;;;;;4996501;28;20187;-78
2022/04/26 10:49:25;;;;;;;30.73;22.20;;;;;;;;;;5000765;28;20183;-80
2022/04/26 10:51:57;;;;;;;35.85;23.60;;;;;;;;;;4999229;28;20532;-81
2022/04/26 10:54:58;;;;;;;37.60;25.25;;;;;;;;;;4999747;28;20230;-80
2022/04/26 10:57:28;;;;;;;33.78;23.13;;;;;;;;;;4986240;28;20187;-79
2022/04/26 10:59:59;;;;;;;30.77;21.70;;;;;;;;;;5001615;28;20199;-79
2022/04/26 11:02:26;;;;;;;32.20;23.08;;;;;;;;;;4989055;28;20258;-80
2022/04/26 11:04:56;;;;;;;36.80;24.35;;;;;;;;;;5002997;28;20195;-79
2022/04/26 11:07:25;;;;;;;30.52;21.55;;;;;;;;;;4988663;28;20178;-79
2022/04/26 11:09:53;;;;;;;31.23;21.75;;;;;;;;;;4990156;28;20222;-80
2022/04/26 11:12:39;;;;;;;32.53;22.40;;;;;;;;;;5003664;28;20190;-79
2022/04/26 11:15:05;;;;;;;33.05;22.05;;;;;;;;;;4986113;28;20183;-80
2022/04/26 11:17:32;;;;;;;34.95;22.35;;;;;;;;;;4968049;28;20257;-81
2022/04/26 11:19:59;;;;;;;26.10;20.38;;;;;;;;;;4975003;28;20243;-79
2022/04/26 11:22:26;;;;;;;28.27;21.05;;;;;;;;;;4972399;28;20212;-80
2022/04/26 11:28:00;;;;;;;30.55;22.10;;;;;;;;;;4978798;28;20195;-81
2022/04/26 11:30:28;;;;;;;29.90;20.83;;;;;;;;;;4970906;28;20187;-80
2022/04/26 11:32:56;;;;;;;28.13;19.67;;;;;;;;;;4970426;28;20205;-80
2022/04/26 11:35:22;;;;;;;31.48;21.92;;;;;;;;;;4970338;28;20177;-79
2022/04/26 11:37:49;;;;;;;27.50;20.80;;;;;;;;;;4972344;28;20188;-80
2022/04/26 11:40:42;;;;;;;24.98;18.65;;;;;;;;;;4971143;28;20299;-81
2022/04/26 11:43:08;;;;;;;26.45;17.88;;;;;;;;;;4969858;28;20261;-81
2022/04/26 11:45:34;;;;;;;28.98;20.58;;;;;;;;;;4976157;28;20192;-81
2022/04/26 11:48:01;;;;;;;27.70;19.52;;;;;;;;;;4951282;28;20213;-82
2022/04/26 11:50:28;;;;;;;27.35;20.35;;;;;;;;;;4970541;28;20200;-82
2022/04/26 11:53:07;;;;;;;27.58;18.48;;;;;;;;;;4979772;28;20192;-80
2022/04/26 11:55:35;;;;;;;27.20;19.02;;;;;;;;;;4960974;28;20658;-80
2022/04/26 11:58:10;;;;;;;24.48;18.10;;;;;;;;;;4970125;28;20247;-80
2022/04/26 12:00:37;;;;;;;24.08;18.17;;;;;;;;;;4983346;28;20214;-80
2022/04/26 12:03:03;;;;;;;26.10;18.98;;;;;;;;;;4957051;28;20206;-80
2022/04/26 12:05:29;;;;;;;21.45;16.42;;;;;;;;;;4981503;28;20653;-81
2022/04/26 12:07:56;;;;;;;20.40;16.48;;;;;;;;;;4973357;28;20189;-81
2022/04/26 12:10:35;;;;;;;25.23;17.85;;;;;;;;;;4975821;28;20270;-81
2022/04/26 12:13:05;;;;;;;23.02;17.23;;;;;;;;;;4964589;28;20187;-82
2022/04/26 12:15:32;;;;;;;20.05;16.23;;;;;;;;;;4971703;28;20249;-81
2022/04/26 12:18:06;;;;;;;23.40;16.45;;;;;;;;;;5003721;28;20399;-80
2022/04/26 12:20:33;;;;;;;25.17;17.98;;;;;;;;;;4973073;28;20211;-82
2022/04/26 12:22:59;;;;;;;23.63;17.27;;;;;;;;;;4989991;28;20198;-81
2022/04/26 12:25:25;;;;;;;24.23;18.90;;;;;;;;;;4996754;28;20206;-80
2022/04/26 12:28:04;;;;;;;23.95;17.88;;;;;;;;;;4989506;28;20214;-80
2022/04/26 12:30:30;;;;;;;26.77;17.58;;;;;;;;;;5001374;28;20659;-81
2022/04/26 12:32:57;;;;;;;19.50;14.98;;;;;;;;;;5002702;28;20235;-80
2022/04/26 12:35:23;;;;;;;17.25;15.05;;;;;;;;;;5002863;28;20183;-82
2022/04/26 12:38:02;;;;;;;15.75;12.73;;;;;;;;;;4988119;28;20198;-80
2022/04/26 12:40:28;;;;;;;20.27;15.43;;;;;;;;;;4996455;28;20724;-79
2022/04/26 12:42:57;;;;;;;21.70;14.93;;;;;;;;;;4984341;28;20186;-80
2022/04/26 12:45:23;;;;;;;18.58;14.02;;;;;;;;;;4986238;28;20184;-80
2022/04/26 12:50:54;;;;;;;19.80;15.45;;;;;;;;;;5002552;28;20210;-80
2022/04/26 12:53:28;;;;;;;17.52;15.00;;;;;;;;;;5002975;28;20175;-81
2022/04/26 12:55:54;;;;;;;18.08;14.45;;;;;;;;;;5001442;28;20686;-80
2022/04/26 12:58:35;;;;;;;16.55;13.77;;;;;;;;;;5000944;28;20201;-83
2022/04/26 13:01:01;;;;;;;15.60;13.50;;;;;;;;;;5002883;28;20258;-80
2022/04/26 13:03:27;;;;;;;18.87;12.87;;;;;;;;;;5001243;28;20188;-82
2022/04/26 13:06:04;;;;;;;13.85;11.95;;;;;;;;;;4985574;28;20418;-81
2022/04/26 13:08:30;;;;;;;11.75;10.55;;;;;;;;;;4999432;28;20244;-80
2022/04/26 13:10:56;;;;;;;13.25;11.18;;;;;;;;;;4972760;28;20638;-80
2022/04/26 13:13:23;;;;;;;15.50;12.30;;;;;;;;;;4994877;28;20194;-80
2022/04/26 13:15:48;;;;;;;14.82;11.13;;;;;;;;;;5001163;28;20392;-80
2022/04/26 13:18:17;;;;;;;14.23;11.77;;;;;;;;;;5000479;28;20225;-81
2022/04/26 13:20:45;;;;;;;13.25;11.52;;;;;;;;;;5004314;28;20470;-80
2022/04/26 13:23:11;;;;;;;12.73;11.25;;;;;;;;;;5002294;28;20182;-80
2022/04/26 13:25:37;;;;;;;11.87;10.67;;;;;;;;;;5000007;28;20253;-82
2022/04/26 13:28:04;;;;;;;13.17;10.73;;;;;;;;;;5000120;28;20912;-80
2022/04/26 13:30:30;;;;;;;10.37;9.07;;;;;;;;;;5000955;28;20500;-80
2022/04/26 13:32:56;;;;;;;11.57;10.37;;;;;;;;;;4984558;28;20938;-79
2022/04/26 13:35:22;;;;;;;10.80;9.70;;;;;;;;;;5001563;28;20430;-80
2022/04/26 13:37:50;;;;;;;12.17;9.67;;;;;;;;;;5000733;28;20566;-80
2022/04/26 13:40:16;;;;;;;9.53;8.73;;;;;;;;;;5000480;28;20811;-81
2022/04/26 13:42:42;;;;;;;11.03;8.60;;;;;;;;;;5002535;28;20412;-80
2022/04/26 13:45:08;;;;;;;10.10;9.20;;;;;;;;;;4983438;28;20417;-81
2022/04/26 13:47:36;;;;;;;12.75;10.63;;;;;;;;;;4971285;28;20433;-79
2022/04/26 13:50:02;;;;;;;11.32;10.00;;;;;;;;;;5000302;28;20185;-80
2022/04/26 13:52:28;;;;;;;10.40;9.30;;;;;;;;;;5000291;28;20255;-79
2022/04/26 13:54:54;;;;;;;12.90;11.25;;;;;;;;;;4984811;28;20190;-79
2022/04/26 13:57:20;;;;;;;11.15;9.98;;;;;;;;;;5000088;28;20199;-80
2022/04/26 13:59:46;;;;;;;10.60;9.63;;;;;;;;;;5002079;28;20191;-81
2022/04/26 14:02:13;;;;;;;10.10;9.20;;;;;;;;;;5003217;28;20176;-80
2022/04/26 14:04:39;;;;;;;8.98;8.07;;;;;;;;;;4999962;28;20270;-80
2022/04/26 14:07:06;;;;;;;11.93;10.55;;;;;;;;;;5002409;28;20191;-78
2022/04/26 14:09:32;;;;;;;9.95;8.95;;;;;;;;;;5000265;28;20179;-80
2022/04/26 14:11:58;;;;;;;11.05;9.65;;;;;;;;;;4984550;28;20223;-79
2022/04/26 14:22:38;;;;;;;10.57;9.48;;;;;;;;;;5000293;28;20684;-79
2022/04/26 14:25:05;;;;;;;10.57;9.50;;;;;;;;;;5000498;28;20183;-81
2022/04/26 14:27:32;;;;;;;8.65;7.43;;;;;;;;;;4999941;28;20440;-80
2022/04/26 14:29:58;;;;;;;8.20;7.45;;;;;;;;;;5000954;28;20175;-80
2022/04/26 14:32:24;;;;;;;8.88;8.07;;;;;;;;;;4971345;28;20184;-81
2022/04/26 14:34:51;;;;;;;7.70;6.85;;;;;;;;;;4998223;28;20252;-81
2022/04/26 14:37:17;;;;;;;7.75;6.95;;;;;;;;;;4988760;28;20661;-80
2022/04/26 14:39:44;;;;;;;8.70;7.90;;;;;;;;;;5003106;28;20242;-81
2022/04/26 14:42:10;;;;;;;7.88;7.07;;;;;;;;;;5004547;28;20175;-80
2022/04/26 14:44:36;;;;;;;8.77;7.97;;;;;;;;;;5007097;28;20175;-80
2022/04/26 14:47:02;;;;;;;9.25;8.20;;;;;;;;;;4986362;28;20265;-80
2022/04/26 14:49:29;;;;;;;9.82;8.93;;;;;;;;;;5003615;28;20186;-80
2022/04/26 14:51:55;;;;;;;8.57;7.78;;;;;;;;;;4995612;28;20191;-81
2022/04/26 14:54:21;;;;;;;10.77;8.35;;;;;;;;;;4986332;28;20199;-80
2022/04/26 14:56:47;;;;;;;8.63;7.82;;;;;;;;;;5006430;28;20174;-80
2022/04/26 14:59:15;;;;;;;7.50;6.90;;;;;;;;;;5004597;28;20251;-80
2022/04/26 15:01:46;;;;;;;8.27;7.07;;;;;;;;;;4988896;28;20211;-80
2022/04/26 15:04:12;;;;;;;7.70;6.70;;;;;;;;;;5003174;28;20210;-80
2022/04/26 15:06:38;;;;;;;9.85;7.78;;;;;;;;;;5005365;28;20183;-79
2022/04/26 15:16:37;;;;;;;8.57;6.50;;;;;;;;;;5002992;28;20676;-80
2022/04/26 15:17:19;;;;;;;6.90;5.70;;;;;;;;;;5006799;28;20276;-79
2022/04/26 15:19:48;;;;;;;7.37;6.30;;;;;;;;;;5003809;28;20695;-80
2022/04/26 15:22:14;;;;;;;7.88;7.13;;;;;;;;;;5003607;28;20767;-82
2022/04/26 15:24:40;;;;;;;6.85;6.15;;;;;;;;;;4989380;28;20242;-82
2022/04/26 15:27:06;;;;;;;7.30;6.60;;;;;;;;;;5003101;28;20184;-81
2022/04/26 15:29:33;;;;;;;7.03;6.22;;;;;;;;;;5005599;28;20178;-81
2022/04/26 15:31:59;;;;;;;7.10;6.40;;;;;;;;;;4985645;28;20183;-80
2022/04/26 15:34:25;;;;;;;6.50;6.00;;;;;;;;;;4984914;28;20199;-80
2022/04/26 15:36:51;;;;;;;5.37;4.87;;;;;;;;;;5003239;28;20456;-81
2022/04/26 15:39:17;;;;;;;7.32;5.65;;;;;;;;;;4986603;28;20470;-81
2022/04/26 15:41:42;;;;;;;5.53;4.83;;;;;;;;;;5005706;28;20198;-81
2022/04/26 15:44:09;;;;;;;5.10;4.60;;;;;;;;;;5004229;28;20417;-80
2022/04/26 15:46:35;;;;;;;5.18;4.55;;;;;;;;;;4990333;28;20442;-80
2022/04/26 15:49:02;;;;;;;5.63;5.05;;;;;;;;;;4987610;28;20214;-81
2022/04/26 15:51:28;;;;;;;5.18;4.72;;;;;;;;;;5002532;28;20546;-80
2022/04/26 15:53:54;;;;;;;5.60;5.10;;;;;;;;;;4987376;28;20178;-80
2022/04/26 15:56:20;;;;;;;5.40;4.83;;;;;;;;;;5003804;28;20187;-80
2022/04/26 15:58:47;;;;;;;4.70;4.27;;;;;;;;;;5002314;28;20449;-81
2022/04/26 16:01:12;;;;;;;5.88;4.05;;;;;;;;;;4988556;28;20492;-82
2022/04/26 16:03:41;;;;;;;4.10;3.80;;;;;;;;;;5002726;28;20669;-82
2022/04/26 16:06:06;;;;;;;5.45;4.95;;;;;;;;;;5002635;28;20448;-81
2022/04/26 16:08:35;;;;;;;5.20;4.70;;;;;;;;;;4973099;28;20172;-81
2022/04/26 16:22:02;;;;;;;4.90;4.50;;;;;;;;;;5001826;28;20263;-81
2022/04/26 16:24:28;;;;;;;4.53;4.13;;;;;;;;;;5002278;28;20172;-81
2022/04/26 16:26:55;;;;;;;5.40;3.60;;;;;;;;;;4986666;28;20233;-81
2022/04/26 16:29:21;;;;;;;6.38;4.78;;;;;;;;;;5003727;28;20167;-80
2022/04/26 16:31:48;;;;;;;5.32;4.85;;;;;;;;;;4988380;28;20217;-82
2022/04/26 16:34:14;;;;;;;5.03;3.95;;;;;;;;;;4987711;28;20183;-80
2022/04/26 16:36:41;;;;;;;4.75;4.18;;;;;;;;;;5001672;28;20195;-81
2022/04/26 16:39:07;;;;;;;5.38;4.90;;;;;;;;;;4985695;28;20635;-81
2022/04/26 16:41:34;;;;;;;4.93;4.23;;;;;;;;;;4987456;28;20190;-81
2022/04/26 16:44:00;;;;;;;4.35;4.05;;;;;;;;;;5003569;28;20434;-80
2022/04/26 16:46:29;;;;;;;5.80;4.50;;;;;;;;;;4987313;28;20186;-81
2022/04/26 16:48:56;;;;;;;5.30;4.80;;;;;;;;;;5001426;28;20436;-81
2022/04/26 16:51:22;;;;;;;6.65;3.90;;;;;;;;;;4986570;28;20595;-80
2022/04/26 16:53:48;;;;;;;4.93;4.53;;;;;;;;;;5003253;28;20605;-80
2022/04/26 16:56:14;;;;;;;6.78;4.55;;;;;;;;;;4987458;28;20187;-82
2022/04/26 16:58:41;;;;;;;5.43;4.93;;;;;;;;;;5001559;28;20263;-80
2022/04/26 17:01:07;;;;;;;5.85;5.28;;;;;;;;;;5002270;28;20956;-81
2022/04/26 17:03:33;;;;;;;5.25;4.80;;;;;;;;;;4986885;28;20210;-83
2022/04/26 17:06:00;;;;;;;4.95;4.18;;;;;;;;;;5002691;28;20282;-81
2022/04/26 17:08:26;;;;;;;5.32;4.88;;;;;;;;;;5003464;28;20254;-81
2022/04/26 17:10:53;;;;;;;4.90;4.45;;;;;;;;;;4986806;28;20194;-82
2022/04/26 17:13:19;;;;;;;6.38;4.70;;;;;;;;;;5001320;28;20186;-83
2022/04/26 17:15:46;;;;;;;4.72;4.32;;;;;;;;;;4986900;28;20211;-81
2022/04/26 17:18:14;;;;;;;6.22;4.65;;;;;;;;;;4983047;28;20179;-80
2022/04/26 17:20:40;;;;;;;4.20;3.80;;;;;;;;;;4988799;28;20653;-80
2022/04/26 17:23:06;;;;;;;5.47;4.50;;;;;;;;;;4968893;28;20295;-80
2022/04/26 17:25:34;;;;;;;4.55;4.03;;;;;;;;;;4986843;28;20187;-80
2022/04/26 17:28:01;;;;;;;5.10;3.88;;;;;;;;;;4985625;28;20198;-82
2022/04/26 17:30:27;;;;;;;4.70;3.92;;;;;;;;;;4952505;28;20184;-81
2022/04/26 17:32:53;;;;;;;5.18;4.68;;;;;;;;;;4986276;28;20203;-81
2022/04/26 17:35:19;;;;;;;5.13;4.63;;;;;;;;;;4986522;28;20186;-80
2022/04/26 17:37:46;;;;;;;5.30;4.80;;;;;;;;;;4971796;28;20188;-79
2022/04/26 17:40:14;;;;;;;5.57;4.75;;;;;;;;;;4985649;28;20831;-80
2022/04/26 17:42:41;;;;;;;6.68;4.57;;;;;;;;;;4987488;28;20182;-82
2022/04/26 17:45:08;;;;;;;7.07;4.90;;;;;;;;;;4982113;28;24389;-80
2022/04/26 17:47:35;;;;;;;5.03;4.28;;;;;;;;;;4989234;28;20176;-80
2022/04/26 17:50:02;;;;;;;9.07;5.05;;;;;;;;;;4985261;28;20194;-80
2022/04/26 17:52:28;;;;;;;5.60;5.10;;;;;;;;;;4980342;28;20211;-81
2022/04/26 17:57:39;;;;;;;4.97;4.40;;;;;;;;;;4985357;28;20237;-80
2022/04/26 18:00:08;;;;;;;5.70;4.57;;;;;;;;;;4982571;28;20215;-80
2022/04/26 18:02:35;;;;;;;8.68;4.30;;;;;;;;;;4971842;28;20171;-80
2022/04/26 18:05:01;;;;;;;5.50;5.00;;;;;;;;;;4985074;28;20182;-80
2022/04/26 18:07:26;;;;;;;7.00;5.27;;;;;;;;;;4985335;28;20194;-80
2022/04/26 18:09:52;;;;;;;5.53;5.03;;;;;;;;;;4971877;28;20511;-81
2022/04/26 18:12:18;;;;;;;5.60;5.10;;;;;;;;;;4985031;28;20918;-79
2022/04/26 18:14:45;;;;;;;5.00;4.53;;;;;;;;;;4973730;28;20415;-80
2022/04/26 18:17:11;;;;;;;4.70;4.20;;;;;;;;;;4990276;28;20458;-78
2022/04/26 18:19:37;;;;;;;4.65;4.18;;;;;;;;;;4990172;28;20191;-79
2022/04/26 18:22:03;;;;;;;6.30;5.20;;;;;;;;;;4976439;28;20288;-80
2022/04/26 18:24:29;;;;;;;6.80;4.82;;;;;;;;;;4972637;28;20558;-79
2022/04/26 18:26:55;;;;;;;4.70;4.30;;;;;;;;;;4989158;28;20186;-80
2022/04/26 18:29:21;;;;;;;6.03;5.30;;;;;;;;;;4986333;28;20178;-79
2022/04/26 18:31:51;;;;;;;8.67;5.57;;;;;;;;;;4985218;28;20190;-79
2022/04/26 18:34:19;;;;;;;5.65;5.05;;;;;;;;;;4981651;28;20438;-80
2022/04/26 18:36:46;;;;;;;7.35;5.10;;;;;;;;;;4971796;28;20194;-79
2022/04/26 18:39:12;;;;;;;4.75;4.22;;;;;;;;;;4984659;28;20190;-79
2022/04/26 18:41:39;;;;;;;5.25;4.82;;;;;;;;;;4992178;28;20199;-79
2022/04/26 18:44:05;;;;;;;4.57;3.85;;;;;;;;;;4988916;28;20186;-79
2022/04/26 18:46:31;;;;;;;5.97;4.50;;;;;;;;;;4974409;28;20571;-79
2022/04/26 18:48:57;;;;;;;4.93;4.43;;;;;;;;;;4990284;28;20702;-79
2022/04/26 18:51:23;;;;;;;5.50;4.23;;;;;;;;;;4985459;28;20243;-79